Time;durP1;ratioP1;P1;durP2;ratioP2;P2;SDS_P1;SDS_P2;PMS_P1;PMS_P2;Temp;Humidity;BMP_temperature;BMP_pressure;BME280_temperature;BME280_humidity;BME280_pressure;Samples;Min_cycle;Max_cycle;Signal;HPM_P1;HPM_P2
2021/05/31 00:01:23;;;;;;;4.57;3.20;;;8.30;99.90;;;;;;5027966;28;20211;-74
2021/05/31 00:03:49;;;;;;;3.67;3.20;;;8.30;99.90;;;;;;5031032;28;20186;-74
2021/05/31 00:06:16;;;;;;;4.10;3.40;;;8.20;99.90;;;;;;5031608;28;20216;-73
2021/05/31 00:08:41;;;;;;;6.50;3.13;;;8.20;99.90;;;;;;5029409;28;20955;-74
2021/05/31 00:11:07;;;;;;;5.10;3.03;;;8.10;99.90;;;;;;5031509;28;20678;-77
2021/05/31 00:13:32;;;;;;;3.70;2.90;;;8.10;99.90;;;;;;5023140;28;20189;-74
2021/05/31 00:15:59;;;;;;;3.10;2.83;;;8.10;99.90;;;;;;5025112;28;20184;-73
2021/05/31 00:18:25;;;;;;;4.10;3.50;;;8.10;99.90;;;;;;5028158;28;20205;-74
2021/05/31 00:20:51;;;;;;;3.07;2.87;;;8.10;99.90;;;;;;5031509;28;20515;-74
2021/05/31 00:23:18;;;;;;;4.90;4.00;;;8.00;99.90;;;;;;5029163;28;20259;-74
2021/05/31 00:25:44;;;;;;;5.53;2.83;;;8.00;99.90;;;;;;5029706;28;20968;-74
2021/05/31 00:28:10;;;;;;;3.47;3.17;;;7.90;99.90;;;;;;5030477;28;20430;-74
2021/05/31 00:30:36;;;;;;;5.03;3.60;;;7.90;99.90;;;;;;5027164;28;20433;-73
2021/05/31 00:33:01;;;;;;;5.23;4.40;;;7.90;99.90;;;;;;5031240;28;20807;-73
2021/05/31 00:35:27;;;;;;;6.80;3.60;;;7.90;99.90;;;;;;5027042;28;20246;-73
2021/05/31 00:37:55;;;;;;;4.10;3.47;;;7.80;99.90;;;;;;5031308;28;20674;-74
2021/05/31 00:40:23;;;;;;;3.77;3.47;;;7.80;99.90;;;;;;5028992;28;20189;-74
2021/05/31 00:42:48;;;;;;;3.43;3.13;;;7.80;99.90;;;;;;5030889;28;20564;-74
2021/05/31 00:45:15;;;;;;;4.73;3.20;;;7.90;99.90;;;;;;5008194;28;20523;-73
2021/05/31 00:47:40;;;;;;;3.10;2.80;;;7.80;99.90;;;;;;5030166;28;20204;-74
2021/05/31 00:50:07;;;;;;;3.50;3.10;;;7.80;99.90;;;;;;5029015;28;20439;-74
2021/05/31 00:52:33;;;;;;;4.07;2.90;;;7.80;99.90;;;;;;5031027;28;20217;-74
2021/05/31 00:54:59;;;;;;;8.73;4.27;;;7.80;99.90;;;;;;5030680;28;20439;-74
2021/05/31 00:57:25;;;;;;;4.63;3.20;;;7.70;99.90;;;;;;5027043;28;20611;-74
2021/05/31 00:59:51;;;;;;;3.83;2.80;;;7.70;99.90;;;;;;5031167;28;20176;-74
2021/05/31 01:02:17;;;;;;;5.17;3.40;;;7.70;99.90;;;;;;5028777;28;20949;-75
2021/05/31 01:04:42;;;;;;;3.47;3.27;;;7.60;99.90;;;;;;5013410;28;20186;-76
2021/05/31 01:07:36;;;;;;;7.37;3.60;;;7.60;99.90;;;;;;5027147;28;20228;-73
2021/05/31 01:10:08;;;;;;;4.20;3.77;;;7.50;99.90;;;;;;5015896;28;20187;-74
2021/05/31 01:13:05;;;;;;;3.33;3.13;;;7.40;99.90;;;;;;5025184;28;20472;-74
2021/05/31 01:15:38;;;;;;;6.60;3.47;;;7.50;99.90;;;;;;5024568;28;20455;-73
2021/05/31 01:18:21;;;;;;;3.83;3.50;;;7.40;99.90;;;;;;5024024;28;20466;-74
2021/05/31 01:21:12;;;;;;;3.87;3.50;;;7.30;99.90;;;;;;5013184;28;20448;-73
2021/05/31 01:23:41;;;;;;;6.43;3.70;;;7.30;99.90;;;;;;5028707;28;20867;-74
2021/05/31 01:26:19;;;;;;;7.50;4.37;;;7.30;99.90;;;;;;5030736;28;20425;-73
2021/05/31 01:28:58;;;;;;;3.10;2.83;;;7.30;99.90;;;;;;5026727;28;20506;-74
2021/05/31 01:31:32;;;;;;;3.43;2.80;;;7.30;99.90;;;;;;5018720;28;20480;-74
2021/05/31 01:33:59;;;;;;;5.47;3.40;;;7.20;99.90;;;;;;5028559;28;20442;-74
2021/05/31 01:36:25;;;;;;;4.30;3.07;;;7.20;99.90;;;;;;5030699;28;20489;-74
2021/05/31 01:38:53;;;;;;;3.47;3.17;;;7.10;99.90;;;;;;5028734;28;20465;-74
2021/05/31 01:41:20;;;;;;;6.50;3.17;;;7.10;99.90;;;;;;5015922;28;20864;-74
2021/05/31 01:43:48;;;;;;;3.90;3.60;;;7.10;99.90;;;;;;5032127;28;20512;-73
2021/05/31 01:46:13;;;;;;;3.37;3.07;;;7.10;99.90;;;;;;5014576;28;20520;-74
2021/05/31 01:48:42;;;;;;;3.80;3.10;;;7.10;99.90;;;;;;5034253;28;20537;-75
2021/05/31 01:51:07;;;;;;;3.63;3.33;;;7.00;99.90;;;;;;5030152;28;20211;-75
2021/05/31 01:53:34;;;;;;;3.67;3.00;;;7.00;99.90;;;;;;5016281;28;20792;-76
2021/05/31 01:56:00;;;;;;;4.20;3.70;;;7.00;99.90;;;;;;5031936;28;20453;-74
2021/05/31 01:58:26;;;;;;;3.67;3.37;;;7.00;99.90;;;;;;5016137;28;20503;-74
2021/05/31 02:00:52;;;;;;;6.03;3.73;;;7.00;99.90;;;;;;5026193;28;20475;-74
2021/05/31 02:03:18;;;;;;;4.13;3.27;;;6.90;99.90;;;;;;5032919;28;20413;-75
2021/05/31 02:05:43;;;;;;;4.23;3.33;;;6.90;99.90;;;;;;5031812;28;20468;-74
2021/05/31 02:08:09;;;;;;;4.37;2.70;;;6.80;99.90;;;;;;5033736;28;20199;-73
2021/05/31 02:10:35;;;;;;;4.57;2.80;;;6.80;99.90;;;;;;5031843;28;20174;-74
2021/05/31 02:13:04;;;;;;;3.20;2.90;;;6.80;99.90;;;;;;5027063;28;20549;-75
2021/05/31 02:15:47;;;;;;;4.47;2.83;;;6.80;99.90;;;;;;5024575;28;20529;-74
2021/05/31 02:18:25;;;;;;;6.10;3.07;;;6.70;99.90;;;;;;5015842;28;20436;-73
2021/05/31 02:21:07;;;;;;;2.77;2.57;;;6.70;99.90;;;;;;5033732;28;20473;-75
2021/05/31 02:23:33;;;;;;;3.07;2.80;;;6.60;99.90;;;;;;5030300;28;20438;-74
2021/05/31 02:26:00;;;;;;;5.00;3.33;;;6.60;99.90;;;;;;5033673;28;20969;-73
2021/05/31 02:28:26;;;;;;;3.77;2.87;;;6.60;99.90;;;;;;5031111;28;20501;-76
2021/05/31 02:30:52;;;;;;;3.40;3.00;;;6.60;99.90;;;;;;5030404;28;20965;-74
2021/05/31 02:33:22;;;;;;;3.93;3.33;;;6.50;99.90;;;;;;5030912;28;20477;-75
2021/05/31 02:35:47;;;;;;;3.40;2.80;;;6.50;99.90;;;;;;5033542;28;20465;-73
2021/05/31 02:38:13;;;;;;;4.20;2.67;;;6.50;99.90;;;;;;5031350;28;20908;-74
2021/05/31 02:40:38;;;;;;;3.40;3.10;;;6.40;99.90;;;;;;5033372;28;20177;-73
2021/05/31 02:43:09;;;;;;;6.83;3.40;;;6.40;99.90;;;;;;5031308;28;20180;-73
2021/05/31 02:45:34;;;;;;;3.30;3.10;;;6.40;99.90;;;;;;5029512;28;20320;-76
2021/05/31 02:48:00;;;;;;;3.63;3.07;;;6.30;99.90;;;;;;5014790;28;20503;-74
2021/05/31 02:50:27;;;;;;;2.70;2.17;;;6.30;99.90;;;;;;5031749;28;20182;-73
2021/05/31 02:52:54;;;;;;;2.80;2.43;;;6.30;99.90;;;;;;5032404;28;20509;-75
2021/05/31 02:55:24;;;;;;;5.03;2.70;;;6.30;99.90;;;;;;5012757;28;20507;-74
2021/05/31 02:57:51;;;;;;;3.57;3.23;;;6.20;99.90;;;;;;5033163;28;20488;-73
2021/05/31 03:00:18;;;;;;;3.30;3.00;;;6.20;99.90;;;;;;5030694;28;20438;-73
2021/05/31 03:02:44;;;;;;;5.83;3.37;;;6.10;99.90;;;;;;5030661;28;20468;-75
2021/05/31 03:05:14;;;;;;;4.60;3.50;;;6.10;99.90;;;;;;5030274;28;20493;-77
2021/05/31 03:07:39;;;;;;;3.27;2.97;;;6.10;99.90;;;;;;5014884;28;20484;-73
2021/05/31 03:10:06;;;;;;;4.40;3.00;;;6.10;99.90;;;;;;5012553;28;20473;-73
2021/05/31 03:12:32;;;;;;;7.23;3.27;;;6.00;99.90;;;;;;5032585;28;20213;-73
2021/05/31 03:14:57;;;;;;;4.20;2.90;;;6.10;99.90;;;;;;5010258;28;20485;-74
2021/05/31 03:17:23;;;;;;;2.87;2.63;;;6.00;99.90;;;;;;5012013;28;20915;-74
2021/05/31 03:19:48;;;;;;;4.97;3.33;;;6.00;99.90;;;;;;5012965;28;20221;-76
2021/05/31 03:22:14;;;;;;;3.73;3.40;;;6.00;99.90;;;;;;5012571;28;20187;-73
2021/05/31 03:24:40;;;;;;;3.97;3.40;;;6.00;99.90;;;;;;5012528;28;20274;-73
2021/05/31 03:27:06;;;;;;;3.47;2.67;;;6.00;99.90;;;;;;5012693;28;20444;-75
2021/05/31 03:29:32;;;;;;;10.83;3.37;;;5.90;99.90;;;;;;5012544;28;20198;-74
2021/05/31 03:31:58;;;;;;;3.73;3.23;;;5.90;99.90;;;;;;5011513;28;20209;-74
2021/05/31 03:34:24;;;;;;;3.40;3.10;;;5.80;99.90;;;;;;5012446;28;20508;-74
2021/05/31 03:36:50;;;;;;;6.83;3.00;;;5.80;99.90;;;;;;5012533;28;20497;-75
2021/05/31 03:39:15;;;;;;;4.23;3.10;;;5.80;99.90;;;;;;5012242;28;20194;-73
2021/05/31 03:41:41;;;;;;;5.47;3.20;;;5.80;99.90;;;;;;4994831;28;20860;-73
2021/05/31 03:44:07;;;;;;;5.17;3.47;;;5.80;99.90;;;;;;5012100;28;20198;-76
2021/05/31 03:46:32;;;;;;;5.00;3.63;;;5.80;99.90;;;;;;5012414;28;20179;-74
2021/05/31 03:48:58;;;;;;;3.27;2.93;;;5.80;99.90;;;;;;5012315;28;20243;-73
2021/05/31 03:51:24;;;;;;;8.97;3.60;;;5.80;99.90;;;;;;5012127;28;20234;-73
2021/05/31 03:53:50;;;;;;;4.30;3.70;;;5.80;99.90;;;;;;5010703;28;20422;-73
2021/05/31 03:56:15;;;;;;;5.17;3.40;;;5.90;99.90;;;;;;5012190;28;20182;-73
2021/05/31 03:58:42;;;;;;;3.73;3.07;;;5.90;99.90;;;;;;5012064;28;20432;-74
2021/05/31 04:01:08;;;;;;;5.63;3.60;;;5.90;99.90;;;;;;5012113;28;20175;-74
2021/05/31 04:03:36;;;;;;;7.10;2.93;;;6.00;99.90;;;;;;5011830;28;20428;-73
2021/05/31 04:11:40;;;;;;;8.43;3.83;;;6.10;99.90;;;;;;5011895;28;20822;-74
2021/05/31 04:14:17;;;;;;;3.70;3.40;;;6.20;99.90;;;;;;5011763;28;20474;-73
2021/05/31 04:16:45;;;;;;;9.00;3.83;;;6.20;99.90;;;;;;5010669;28;20432;-73
2021/05/31 04:19:12;;;;;;;5.53;2.77;;;6.30;99.90;;;;;;5011480;28;20432;-74
2021/05/31 04:21:39;;;;;;;3.13;2.93;;;6.30;99.90;;;;;;5011925;28;20418;-73
2021/05/31 04:24:06;;;;;;;3.63;2.87;;;6.40;99.90;;;;;;5010359;28;20513;-73
2021/05/31 04:26:33;;;;;;;3.43;3.13;;;6.50;99.90;;;;;;5011619;28;20419;-73
2021/05/31 04:28:59;;;;;;;8.57;3.80;;;6.50;99.90;;;;;;5011865;28;20449;-73
2021/05/31 04:31:25;;;;;;;8.67;3.63;;;6.60;99.90;;;;;;5011410;28;20460;-74
2021/05/31 04:33:50;;;;;;;4.30;3.70;;;6.60;99.90;;;;;;5011620;28;20442;-73
2021/05/31 04:36:16;;;;;;;6.20;3.90;;;6.70;99.90;;;;;;5011416;28;20197;-73
2021/05/31 04:38:42;;;;;;;6.20;3.37;;;6.80;99.90;;;;;;5011642;28;20199;-73
2021/05/31 04:41:08;;;;;;;3.60;3.30;;;6.90;99.90;;;;;;4993893;28;20426;-75
2021/05/31 04:43:33;;;;;;;5.50;3.63;;;7.00;99.90;;;;;;5011496;28;20183;-74
2021/05/31 04:45:59;;;;;;;5.83;3.40;;;7.10;99.90;;;;;;5011597;28;20263;-74
2021/05/31 04:48:25;;;;;;;5.67;3.20;;;7.30;99.90;;;;;;5011412;28;20214;-74
2021/05/31 04:50:56;;;;;;;7.30;3.80;;;7.50;99.90;;;;;;5011307;28;20414;-73
2021/05/31 04:53:26;;;;;;;4.60;3.83;;;7.60;99.90;;;;;;5011156;28;20658;-74
2021/05/31 04:55:55;;;;;;;7.13;3.40;;;7.80;99.90;;;;;;5011455;28;20432;-73
2021/05/31 04:58:22;;;;;;;6.03;2.87;;;8.00;99.90;;;;;;5011200;28;20787;-75
2021/05/31 05:00:48;;;;;;;9.80;3.40;;;8.40;99.90;;;;;;5011498;28;20977;-74
2021/05/31 05:03:14;;;;;;;4.00;2.60;;;10.30;99.90;;;;;;5011106;28;20417;-73
2021/05/31 05:05:40;;;;;;;3.10;2.63;;;13.50;99.90;;;;;;5011391;28;20424;-74
2021/05/31 05:08:06;;;;;;;2.80;2.60;;;16.80;99.90;;;;;;5011101;28;20241;-75
2021/05/31 05:10:32;;;;;;;3.30;2.20;;;19.80;99.90;;;;;;5011316;28;20811;-75
2021/05/31 05:12:57;;;;;;;5.27;2.40;;;22.00;99.90;;;;;;5011138;28;20473;-77
2021/05/31 05:15:25;;;;;;;3.07;2.77;;;22.70;99.90;;;;;;5013381;28;20421;-75
2021/05/31 05:17:52;;;;;;;6.23;2.90;;;24.20;99.90;;;;;;5015316;28;20182;-74
2021/05/31 05:20:20;;;;;;;2.50;2.30;;;24.70;99.50;;;;;;5015040;28;20409;-75
2021/05/31 05:22:46;;;;;;;5.93;2.57;;;25.30;97.20;;;;;;5015011;28;20483;-75
2021/05/31 05:25:12;;;;;;;3.73;2.67;;;25.20;95.40;;;;;;4997119;28;20939;-75
2021/05/31 05:27:39;;;;;;;3.70;2.80;;;25.60;94.80;;;;;;5015226;28;20217;-75
2021/05/31 05:30:05;;;;;;;3.33;2.57;;;25.60;93.00;;;;;;5014875;28;20420;-76
2021/05/31 05:32:33;;;;;;;2.57;2.37;;;25.40;93.80;;;;;;5014984;28;20488;-75
2021/05/31 05:35:07;;;;;;;3.80;3.17;;;25.60;92.80;;;;;;5014960;28;20413;-78
2021/05/31 05:37:34;;;;;;;3.23;2.47;;;25.20;91.40;;;;;;5014970;28;20428;-77
2021/05/31 05:45:50;;;;;;;2.90;2.70;;;23.50;91.90;;;;;;5014754;28;20413;-74
2021/05/31 05:48:15;;;;;;;9.47;3.57;;;22.30;93.20;;;;;;5014715;28;20826;-76
2021/05/31 05:50:41;;;;;;;4.50;3.00;;;21.60;94.50;;;;;;5013736;28;20504;-75
2021/05/31 05:53:06;;;;;;;17.03;3.03;;;21.00;96.60;;;;;;5014648;28;20259;-74
2021/05/31 05:55:32;;;;;;;2.83;2.63;;;21.00;95.90;;;;;;5014392;28;20183;-76
2021/05/31 05:57:58;;;;;;;4.10;2.80;;;20.80;96.80;;;;;;5014583;28;20199;-75
2021/05/31 06:00:27;;;;;;;3.67;3.10;;;20.50;96.90;;;;;;5014434;28;20175;-75
2021/05/31 06:02:53;;;;;;;8.70;2.93;;;20.50;97.30;;;;;;5014329;28;20560;-76
2021/05/31 06:05:19;;;;;;;2.77;2.57;;;20.50;96.40;;;;;;5014124;28;20504;-75
2021/05/31 06:07:45;;;;;;;5.93;3.77;;;20.60;97.40;;;;;;5014384;28;20434;-75
2021/05/31 06:10:12;;;;;;;3.30;2.77;;;20.60;97.40;;;;;;5014346;28;20839;-77
2021/05/31 06:12:37;;;;;;;5.17;3.20;;;20.40;97.00;;;;;;5014427;28;20210;-75
2021/05/31 06:15:04;;;;;;;5.47;3.20;;;20.40;99.10;;;;;;5013219;28;20995;-75
2021/05/31 06:17:30;;;;;;;4.70;3.10;;;20.70;96.60;;;;;;5014257;28;20515;-75
2021/05/31 06:20:02;;;;;;;3.67;3.30;;;20.60;96.50;;;;;;5014494;28;20417;-75
2021/05/31 06:22:29;;;;;;;4.03;3.10;;;20.80;96.60;;;;;;5014017;28;20174;-77
2021/05/31 06:24:55;;;;;;;4.00;3.17;;;20.80;96.60;;;;;;5013947;28;20413;-74
2021/05/31 06:27:21;;;;;;;3.57;2.50;;;20.80;95.20;;;;;;5012707;28;20449;-75
2021/05/31 06:29:46;;;;;;;6.23;3.00;;;20.60;95.20;;;;;;5014018;28;20545;-75
2021/05/31 06:32:12;;;;;;;4.20;3.03;;;20.50;96.00;;;;;;5013874;28;20206;-77
2021/05/31 06:34:38;;;;;;;2.43;2.30;;;20.60;95.80;;;;;;5013894;28;20636;-75
2021/05/31 06:37:04;;;;;;;4.67;3.17;;;20.40;95.60;;;;;;5013997;28;20202;-74
2021/05/31 06:39:29;;;;;;;3.30;2.60;;;20.40;95.20;;;;;;5012596;28;20257;-75
2021/05/31 06:41:55;;;;;;;6.20;3.20;;;20.30;95.80;;;;;;5014001;28;20183;-75
2021/05/31 06:44:20;;;;;;;3.83;2.97;;;20.60;97.30;;;;;;5013565;28;20690;-75
2021/05/31 06:46:46;;;;;;;3.63;3.00;;;20.70;97.00;;;;;;5013833;28;20182;-75
2021/05/31 06:49:12;;;;;;;13.87;3.37;;;21.10;95.30;;;;;;5013605;28;20201;-74
2021/05/31 06:51:37;;;;;;;3.50;2.80;;;20.80;95.10;;;;;;5013539;28;20655;-76
2021/05/31 06:54:03;;;;;;;3.80;3.07;;;20.70;95.20;;;;;;5013327;28;20191;-74
2021/05/31 06:56:29;;;;;;;7.33;2.87;;;21.10;97.80;;;;;;4995887;28;20193;-74
2021/05/31 06:58:55;;;;;;;3.67;3.20;;;21.10;96.30;;;;;;5013403;28;20771;-74
2021/05/31 07:01:20;;;;;;;3.10;2.80;;;21.30;95.40;;;;;;5013328;28;20237;-74
2021/05/31 07:03:46;;;;;;;3.37;2.80;;;21.60;95.70;;;;;;5013364;28;20668;-75
2021/05/31 07:06:12;;;;;;;3.30;2.40;;;21.60;95.60;;;;;;4995860;28;20174;-74
2021/05/31 07:08:37;;;;;;;4.33;2.50;;;21.70;95.90;;;;;;5013361;28;20218;-74
2021/05/31 07:11:10;;;;;;;2.70;2.50;;;21.80;95.50;;;;;;5013203;28;20186;-75
2021/05/31 07:13:35;;;;;;;4.33;2.67;;;22.00;95.00;;;;;;5013375;28;20182;-74
2021/05/31 07:16:01;;;;;;;5.27;4.80;;;22.30;96.30;;;;;;5013221;28;20492;-74
2021/05/31 07:18:27;;;;;;;4.07;2.53;;;22.50;94.30;;;;;;5012964;28;20233;-74
2021/05/31 07:20:53;;;;;;;5.97;2.80;;;22.70;95.00;;;;;;5013093;28;20643;-74
2021/05/31 07:23:19;;;;;;;3.00;2.80;;;22.60;93.40;;;;;;5012775;28;20258;-74
2021/05/31 07:25:46;;;;;;;3.97;2.20;;;22.40;92.90;;;;;;5013173;28;20420;-74
2021/05/31 07:28:14;;;;;;;3.07;2.87;;;22.10;92.90;;;;;;5012856;28;20491;-76
2021/05/31 07:30:41;;;;;;;5.77;2.30;;;22.10;94.60;;;;;;5013147;28;20410;-75
2021/05/31 07:33:12;;;;;;;2.90;2.70;;;22.40;94.80;;;;;;4995066;28;20465;-74
2021/05/31 07:35:38;;;;;;;2.83;2.40;;;22.70;94.70;;;;;;5013332;28;20970;-74
2021/05/31 07:38:04;;;;;;;2.40;2.07;;;22.70;93.40;;;;;;5012449;28;20434;-74
2021/05/31 07:40:30;;;;;;;2.80;2.23;;;22.30;93.70;;;;;;4995220;28;20669;-74
2021/05/31 07:42:56;;;;;;;3.47;2.17;;;22.10;93.90;;;;;;5012695;28;20453;-74
2021/05/31 07:45:21;;;;;;;2.53;2.30;;;22.40;95.10;;;;;;5012750;28;20507;-74
2021/05/31 07:47:48;;;;;;;4.63;2.00;;;22.50;94.10;;;;;;5012846;28;20580;-74
2021/05/31 07:50:15;;;;;;;2.27;2.07;;;22.90;94.10;;;;;;5012530;28;20664;-74
2021/05/31 07:52:41;;;;;;;5.47;2.83;;;22.80;94.00;;;;;;5012643;28;20846;-74
2021/05/31 07:55:11;;;;;;;1.70;1.60;;;22.80;92.60;;;;;;5012519;28;20443;-74
2021/05/31 07:57:39;;;;;;;3.13;1.93;;;22.90;93.60;;;;;;5012729;28;20210;-74
2021/05/31 08:00:06;;;;;;;3.30;2.40;;;22.80;93.10;;;;;;5012679;28;20781;-77
2021/05/31 08:02:32;;;;;;;2.40;2.20;;;22.80;92.30;;;;;;5012050;28;20430;-75
2021/05/31 08:04:57;;;;;;;2.30;1.80;;;23.20;91.90;;;;;;4994758;28;20766;-74
2021/05/31 08:07:23;;;;;;;1.80;1.70;;;23.30;90.70;;;;;;5012489;28;20217;-75
2021/05/31 08:09:49;;;;;;;1.63;1.53;;;23.20;90.60;;;;;;5012299;28;20181;-74
2021/05/31 08:12:14;;;;;;;1.87;1.77;;;23.70;90.90;;;;;;5012182;28;20206;-76
2021/05/31 08:14:40;;;;;;;1.73;1.63;;;23.70;83.80;;;;;;5012053;28;20664;-74
2021/05/31 08:17:06;;;;;;;1.80;1.70;;;23.30;81.70;;;;;;5011937;28;20198;-76
2021/05/31 08:19:32;;;;;;;4.73;2.10;;;22.70;81.70;;;;;;5012064;28;20695;-74
2021/05/31 08:21:59;;;;;;;3.20;1.63;;;22.70;83.00;;;;;;5012004;28;20214;-74
2021/05/31 08:24:25;;;;;;;1.87;1.70;;;23.10;81.90;;;;;;5010463;28;21125;-74
2021/05/31 08:26:51;;;;;;;1.53;1.43;;;23.60;80.20;;;;;;5012170;28;20424;-75
2021/05/31 08:29:18;;;;;;;1.40;1.40;;;24.10;80.90;;;;;;5011739;28;20935;-74
2021/05/31 08:31:43;;;;;;;1.57;1.47;;;24.40;78.60;;;;;;5011689;28;20206;-77
2021/05/31 08:34:09;;;;;;;2.40;1.67;;;24.60;78.40;;;;;;5011794;28;20950;-74
2021/05/31 08:36:34;;;;;;;2.70;1.63;;;25.10;79.80;;;;;;5011918;28;20523;-74
2021/05/31 08:39:00;;;;;;;2.20;2.00;;;24.80;80.80;;;;;;5011925;28;20225;-76
2021/05/31 08:41:26;;;;;;;1.60;1.50;;;24.80;79.30;;;;;;5011799;28;20183;-77
2021/05/31 08:43:52;;;;;;;1.70;1.60;;;25.30;84.50;;;;;;5011684;28;20210;-74
2021/05/31 08:46:18;;;;;;;1.50;1.40;;;25.10;78.30;;;;;;5011621;28;20445;-74
2021/05/31 08:48:44;;;;;;;2.63;2.13;;;24.70;77.20;;;;;;4993571;28;20437;-74
2021/05/31 08:51:10;;;;;;;1.60;1.50;;;24.90;78.00;;;;;;5011440;28;20418;-74
2021/05/31 08:53:36;;;;;;;1.70;1.50;;;25.20;75.60;;;;;;5011510;28;20167;-74
2021/05/31 08:56:03;;;;;;;1.77;1.67;;;25.40;77.10;;;;;;5011742;28;20445;-75
2021/05/31 08:58:29;;;;;;;1.80;1.70;;;25.00;76.80;;;;;;5011760;28;20213;-74
2021/05/31 09:00:54;;;;;;;1.80;1.33;;;25.40;78.60;;;;;;5011750;28;20410;-75
2021/05/31 09:03:20;;;;;;;1.87;1.77;;;25.70;76.30;;;;;;5011671;28;20182;-77
2021/05/31 09:05:46;;;;;;;1.53;1.40;;;25.50;73.30;;;;;;5011767;28;20187;-77
2021/05/31 09:08:15;;;;;;;1.90;1.70;;;25.60;75.00;;;;;;5011540;28;20668;-78
2021/05/31 09:10:52;;;;;;;2.23;1.50;;;25.10;74.80;;;;;;4994071;28;20432;-74
2021/05/31 09:13:32;;;;;;;4.17;1.73;;;25.30;76.00;;;;;;5011419;28;20465;-74
2021/05/31 09:16:07;;;;;;;3.73;1.80;;;25.50;75.60;;;;;;5011671;28;20410;-74
2021/05/31 09:18:35;;;;;;;2.87;1.70;;;25.70;74.70;;;;;;5011604;28;20436;-74
2021/05/31 09:21:22;;;;;;;1.90;1.80;;;25.70;75.30;;;;;;5012779;28;20504;-77
2021/05/31 09:23:53;;;;;;;2.67;1.93;;;25.90;78.00;;;;;;5011350;28;20408;-75
2021/05/31 09:26:18;;;;;;;1.90;1.80;;;25.90;74.60;;;;;;5011477;28;20402;-74
2021/05/31 09:28:54;;;;;;;1.83;1.60;;;25.50;74.50;;;;;;5011688;28;20788;-75
2021/05/31 09:31:19;;;;;;;2.00;1.90;;;25.00;78.50;;;;;;5011176;28;20332;-76
2021/05/31 09:33:56;;;;;;;2.10;1.90;;;25.30;77.20;;;;;;5011255;28;20950;-75
2021/05/31 09:36:21;;;;;;;2.80;2.13;;;26.00;78.60;;;;;;5010274;28;20257;-76
2021/05/31 09:38:49;;;;;;;2.43;1.70;;;25.90;78.70;;;;;;4993809;28;20935;-74
2021/05/31 09:41:21;;;;;;;5.03;1.97;;;25.80;74.20;;;;;;5011352;28;20269;-75
2021/05/31 09:43:52;;;;;;;5.47;1.80;;;25.80;75.00;;;;;;4993740;28;20424;-75
2021/05/31 09:46:17;;;;;;;2.00;1.57;;;25.80;78.40;;;;;;5011159;28;20414;-75
2021/05/31 09:48:43;;;;;;;1.87;1.77;;;26.20;76.40;;;;;;5011536;28;20429;-75
2021/05/31 09:51:13;;;;;;;1.73;1.60;;;26.00;74.10;;;;;;4993495;28;20644;-76
2021/05/31 09:53:39;;;;;;;1.87;1.77;;;26.20;75.40;;;;;;5011298;28;20186;-75
2021/05/31 09:56:17;;;;;;;2.30;2.03;;;26.60;78.60;;;;;;5011137;28;20426;-75
2021/05/31 09:58:49;;;;;;;3.60;1.83;;;26.10;75.00;;;;;;5010902;28;20195;-78
2021/05/31 10:01:15;;;;;;;2.23;2.13;;;26.10;73.30;;;;;;5012796;28;20524;-75
2021/05/31 10:03:57;;;;;;;2.07;1.97;;;25.70;78.10;;;;;;4997062;28;20418;-75
2021/05/31 10:06:41;;;;;;;2.27;1.93;;;25.70;75.90;;;;;;5014519;28;20672;-75
2021/05/31 10:09:06;;;;;;;1.60;1.50;;;25.80;74.90;;;;;;4996755;28;20437;-75
2021/05/31 10:11:32;;;;;;;3.17;1.80;;;26.00;73.00;;;;;;5014455;28;20539;-75
2021/05/31 10:14:02;;;;;;;2.30;2.20;;;26.00;74.20;;;;;;5014377;28;20233;-75
2021/05/31 10:16:28;;;;;;;2.20;1.63;;;26.00;76.00;;;;;;5014355;28;20555;-75
2021/05/31 10:18:56;;;;;;;2.07;1.87;;;25.90;76.10;;;;;;5014427;28;20553;-75
2021/05/31 10:21:22;;;;;;;1.87;1.77;;;25.90;74.30;;;;;;5014433;28;20417;-75
2021/05/31 10:23:47;;;;;;;4.50;2.17;;;25.90;74.10;;;;;;5014161;28;20421;-75
2021/05/31 10:26:13;;;;;;;4.20;3.80;;;25.60;74.90;;;;;;5014321;28;20167;-76
2021/05/31 10:28:41;;;;;;;2.07;1.97;;;25.80;75.90;;;;;;5014069;28;20190;-74
2021/05/31 10:31:09;;;;;;;1.37;1.27;;;25.40;76.00;;;;;;5013760;28;20178;-78
2021/05/31 10:33:38;;;;;;;4.23;2.20;;;25.40;76.10;;;;;;5012609;28;20499;-74
2021/05/31 10:36:11;;;;;;;2.30;2.00;;;25.50;75.30;;;;;;5014254;28;20416;-75
2021/05/31 10:38:39;;;;;;;3.50;1.80;;;25.50;76.00;;;;;;5014002;28;20433;-77
2021/05/31 10:41:13;;;;;;;1.90;1.80;;;25.70;74.90;;;;;;4996544;28;20417;-74
2021/05/31 10:43:50;;;;;;;2.50;1.90;;;26.20;75.20;;;;;;5013907;28;20416;-75
2021/05/31 10:46:19;;;;;;;1.87;1.77;;;26.50;77.60;;;;;;5014092;28;20497;-77
2021/05/31 10:48:49;;;;;;;2.30;2.10;;;26.90;77.10;;;;;;5013704;28;20496;-74
2021/05/31 10:51:17;;;;;;;2.33;2.13;;;26.80;75.20;;;;;;5014046;28;20958;-75
2021/05/31 10:53:43;;;;;;;4.47;2.47;;;26.60;73.40;;;;;;5013700;28;20464;-75
2021/05/31 10:56:29;;;;;;;1.87;1.77;;;26.10;74.90;;;;;;4996525;28;20826;-75
2021/05/31 10:58:59;;;;;;;1.90;1.80;;;25.40;74.70;;;;;;5013246;28;20269;-76
2021/05/31 11:01:27;;;;;;;2.63;1.53;;;25.70;73.80;;;;;;5013761;28;20496;-74
2021/05/31 11:04:02;;;;;;;2.40;2.20;;;25.70;78.70;;;;;;5013552;28;20425;-76
2021/05/31 11:06:40;;;;;;;1.90;1.80;;;25.30;73.30;;;;;;5012243;28;20500;-75
2021/05/31 11:09:16;;;;;;;2.70;2.00;;;25.10;77.80;;;;;;5014443;28;20437;-75
2021/05/31 11:11:49;;;;;;;1.90;1.80;;;25.30;77.60;;;;;;5013818;28;20507;-75
2021/05/31 11:14:16;;;;;;;1.90;1.80;;;25.10;77.20;;;;;;5012833;28;20497;-75
2021/05/31 11:16:56;;;;;;;7.53;2.60;;;24.80;76.40;;;;;;5013289;28;20422;-77
2021/05/31 11:19:45;;;;;;;3.50;2.07;;;24.80;78.20;;;;;;5013068;28;20461;-76
2021/05/31 11:22:16;;;;;;;2.27;2.17;;;24.30;76.10;;;;;;5013041;28;20428;-75
2021/05/31 11:24:54;;;;;;;1.90;1.80;;;24.40;77.30;;;;;;5012842;28;20509;-75
2021/05/31 11:27:24;;;;;;;2.40;2.13;;;24.20;77.80;;;;;;5012927;28;20417;-73
2021/05/31 11:29:50;;;;;;;2.70;1.83;;;23.90;77.00;;;;;;5013041;28;20417;-74
2021/05/31 11:32:17;;;;;;;2.80;2.33;;;23.90;79.80;;;;;;5012809;28;20465;-74
2021/05/31 11:34:58;;;;;;;2.87;2.07;;;23.70;77.20;;;;;;5012828;28;20911;-78
2021/05/31 11:37:26;;;;;;;2.67;2.30;;;23.90;78.00;;;;;;5012843;28;20438;-74
2021/05/31 11:39:52;;;;;;;2.80;2.20;;;24.10;79.20;;;;;;5012839;28;20421;-74
2021/05/31 11:42:18;;;;;;;1.87;1.77;;;24.30;79.10;;;;;;5012699;28;20500;-75
2021/05/31 11:44:53;;;;;;;1.97;1.87;;;24.30;78.10;;;;;;5013208;28;20481;-74
2021/05/31 11:47:24;;;;;;;1.90;1.80;;;24.20;79.50;;;;;;5012974;28;20425;-72
2021/05/31 11:49:50;;;;;;;7.50;2.43;;;23.90;82.10;;;;;;5012498;28;20469;-75
2021/05/31 11:52:16;;;;;;;2.30;1.73;;;23.70;78.10;;;;;;5012272;28;20465;-76
2021/05/31 11:54:43;;;;;;;2.13;2.03;;;23.40;77.70;;;;;;5012359;28;20433;-74
2021/05/31 11:57:14;;;;;;;2.40;2.20;;;23.30;79.40;;;;;;5012333;28;20410;-74
2021/05/31 11:59:41;;;;;;;2.40;1.73;;;23.30;77.40;;;;;;5012396;28;20448;-74
2021/05/31 12:02:12;;;;;;;2.40;2.20;;;23.00;77.60;;;;;;5012325;28;20464;-74
2021/05/31 12:04:38;;;;;;;3.47;2.03;;;22.80;79.30;;;;;;5012208;28;20415;-76
2021/05/31 12:07:07;;;;;;;2.60;2.40;;;22.80;80.60;;;;;;5012291;28;20853;-74
2021/05/31 12:09:35;;;;;;;2.20;2.00;;;22.90;81.20;;;;;;5012067;28;20453;-74
2021/05/31 12:12:01;;;;;;;2.03;1.90;;;23.10;80.90;;;;;;5012163;28;20553;-77
2021/05/31 12:14:29;;;;;;;4.13;2.37;;;23.10;78.70;;;;;;4994260;28;20504;-74
2021/05/31 12:16:56;;;;;;;2.53;2.33;;;23.00;78.70;;;;;;5012153;28;20170;-74
2021/05/31 12:19:26;;;;;;;1.90;1.77;;;23.00;80.30;;;;;;5011932;28;20619;-75
2021/05/31 12:22:01;;;;;;;3.93;3.10;;;23.10;81.10;;;;;;4994304;28;20425;-76
2021/05/31 12:24:47;;;;;;;2.60;2.10;;;23.20;80.00;;;;;;5011167;28;20421;-74
2021/05/31 12:27:14;;;;;;;2.70;1.60;;;23.10;80.40;;;;;;5011964;28;20418;-76
2021/05/31 12:29:46;;;;;;;3.63;2.10;;;23.30;79.00;;;;;;5012190;28;20580;-74
2021/05/31 12:32:14;;;;;;;1.90;1.80;;;23.10;77.30;;;;;;5011738;28;20464;-74
2021/05/31 12:34:41;;;;;;;2.33;2.00;;;23.20;80.70;;;;;;5011704;28;20414;-74
2021/05/31 12:37:16;;;;;;;2.63;1.63;;;23.00;77.80;;;;;;5011773;28;20417;-76
2021/05/31 12:39:47;;;;;;;2.07;1.83;;;22.70;78.00;;;;;;5012014;28;20436;-76
2021/05/31 12:42:18;;;;;;;2.50;1.97;;;22.70;82.80;;;;;;5011676;28;20515;-74
2021/05/31 12:44:44;;;;;;;5.37;2.50;;;23.00;80.90;;;;;;5011619;28;20571;-74
2021/05/31 12:47:15;;;;;;;2.20;2.10;;;22.80;79.90;;;;;;5011732;28;20500;-74
2021/05/31 12:49:54;;;;;;;2.80;2.10;;;22.70;83.10;;;;;;5011874;28;20574;-74
2021/05/31 12:52:31;;;;;;;2.73;2.47;;;22.80;80.60;;;;;;5011492;28;20465;-75
2021/05/31 12:55:07;;;;;;;2.80;2.20;;;22.80;83.10;;;;;;5011382;28;20950;-74
2021/05/31 12:57:38;;;;;;;5.17;2.80;;;22.60;82.30;;;;;;5011634;28;20413;-74
2021/05/31 13:00:25;;;;;;;2.00;1.90;;;22.40;81.20;;;;;;5011801;28;20417;-74
2021/05/31 13:02:54;;;;;;;2.00;1.90;;;22.10;79.60;;;;;;5011852;28;20418;-74
2021/05/31 13:05:23;;;;;;;2.03;1.90;;;22.20;80.20;;;;;;5011477;28;20524;-76
2021/05/31 13:07:50;;;;;;;1.70;1.60;;;22.40;79.00;;;;;;5010405;28;20492;-77